createdAt,value
2019-05-14T00:00:43.009Z,8.53
2019-05-14T00:01:42.932Z,8.52
2019-05-14T00:02:42.919Z,8.53
2019-05-14T00:03:42.900Z,8.56
2019-05-14T00:04:42.886Z,8.57
2019-05-14T00:05:42.860Z,8.57
2019-05-14T00:06:42.872Z,8.57
2019-05-14T00:07:42.838Z,8.54
2019-05-14T00:08:42.817Z,8.59
2019-05-14T00:09:42.798Z,8.46
2019-05-14T00:10:42.786Z,8.36
2019-05-14T00:11:42.767Z,8.39
2019-05-14T00:12:42.753Z,8.41
2019-05-14T00:13:42.733Z,8.31
2019-05-14T00:14:43.792Z,8.26
2019-05-14T00:15:42.704Z,8.21
2019-05-14T00:16:42.682Z,8.23
2019-05-14T00:17:42.656Z,8.20
2019-05-14T00:18:42.648Z,8.17
2019-05-14T00:19:42.623Z,8.13
2019-05-14T00:20:42.608Z,8.05
2019-05-14T00:21:42.599Z,8.03
2019-05-14T00:22:42.575Z,7.99
2019-05-14T00:23:42.571Z,7.99
2019-05-14T00:24:42.776Z,7.98
2019-05-14T00:25:42.521Z,8.03
2019-05-14T00:26:42.837Z,7.99
2019-05-14T00:27:42.487Z,7.98
2019-05-14T00:28:42.490Z,7.90
2019-05-14T00:29:42.456Z,7.91
2019-05-14T00:30:42.441Z,7.80
2019-05-14T00:31:42.766Z,7.84
2019-05-14T00:32:42.404Z,7.81
2019-05-14T00:33:42.386Z,7.80
2019-05-14T00:34:42.649Z,7.77
2019-05-14T00:35:42.362Z,7.74
2019-05-14T00:36:42.360Z,7.77
2019-05-14T00:37:42.323Z,7.75
2019-05-14T00:38:42.301Z,7.77
2019-05-14T00:39:42.281Z,7.78
2019-05-14T00:40:42.289Z,7.75
2019-05-14T00:41:42.262Z,7.78
2019-05-14T00:42:42.226Z,7.83
2019-05-14T00:43:42.220Z,7.83
2019-05-14T00:44:53.607Z,7.87
2019-05-14T00:45:42.203Z,7.88
2019-05-14T00:46:42.166Z,7.85
2019-05-14T00:47:42.146Z,7.85
2019-05-14T00:48:42.344Z,7.87
2019-05-14T00:49:42.607Z,7.87
2019-05-14T00:50:42.227Z,7.90
2019-05-14T00:51:42.080Z,7.91
2019-05-14T00:52:45.838Z,7.95
2019-05-14T00:53:42.245Z,7.99
2019-05-14T00:54:42.078Z,8.01
2019-05-14T00:55:42.164Z,8.01
2019-05-14T00:56:42.120Z,7.98
2019-05-14T00:57:42.780Z,8.02
2019-05-14T00:58:41.957Z,7.95
2019-05-14T00:59:42.010Z,7.99
2019-05-14T01:00:41.969Z,8.01
2019-05-14T01:01:42.495Z,8.02
2019-05-14T01:02:41.881Z,7.98
2019-05-14T01:03:41.867Z,7.93
2019-05-14T01:04:42.891Z,7.95
2019-05-14T01:05:41.829Z,7.93
2019-05-14T01:06:42.193Z,7.96
2019-05-14T01:07:42.263Z,7.91
2019-05-14T01:08:41.791Z,7.95
2019-05-14T01:09:42.272Z,7.96
2019-05-14T01:10:41.919Z,8.02
2019-05-14T01:11:42.113Z,8.06
2019-05-14T01:12:41.850Z,8.11
2019-05-14T01:13:41.873Z,8.08
2019-05-14T01:14:42.467Z,8.09
2019-05-14T01:15:41.662Z,8.13
2019-05-14T01:16:42.458Z,8.09
2019-05-14T01:17:42.138Z,8.05
2019-05-14T01:18:41.632Z,8.01
2019-05-14T01:19:42.465Z,7.99
2019-05-14T01:20:41.574Z,7.95
2019-05-14T01:21:41.832Z,8.01
2019-05-14T01:22:42.307Z,8.01
2019-05-14T01:23:41.710Z,8.01
2019-05-14T01:24:41.875Z,7.99
2019-05-14T01:25:42.223Z,8.01
2019-05-14T01:26:41.683Z,7.99
2019-05-14T01:27:41.568Z,7.96
2019-05-14T01:28:41.697Z,7.95
2019-05-14T01:29:42.535Z,7.95
2019-05-14T01:30:41.409Z,7.91
2019-05-14T01:31:41.889Z,7.95
2019-05-14T01:32:42.044Z,7.93
2019-05-14T01:33:41.352Z,7.93
2019-05-14T01:34:42.042Z,7.93
2019-05-14T01:35:42.038Z,7.91
2019-05-14T01:36:41.533Z,7.93
2019-05-14T01:37:41.801Z,7.91
2019-05-14T01:38:41.854Z,7.87
2019-05-14T01:39:42.033Z,7.85
2019-05-14T01:40:41.967Z,7.88
2019-05-14T01:41:42.281Z,7.87
2019-05-14T01:42:41.754Z,7.91
2019-05-14T01:43:41.957Z,7.88
2019-05-14T01:44:41.441Z,7.91
2019-05-14T01:45:41.751Z,7.87
2019-05-14T01:46:42.084Z,7.91
2019-05-14T01:47:41.532Z,7.90
2019-05-14T01:48:41.772Z,7.90
2019-05-14T01:49:42.753Z,7.95
2019-05-14T01:50:41.457Z,7.96
2019-05-14T01:51:42.399Z,7.96
2019-05-14T01:52:41.522Z,7.95
2019-05-14T01:53:41.691Z,7.90
2019-05-14T01:54:42.667Z,7.91
2019-05-14T01:55:41.482Z,7.96
2019-05-14T01:56:42.415Z,7.95
2019-05-14T01:57:42.503Z,7.91
2019-05-14T01:58:41.730Z,7.91
2019-05-14T01:59:42.950Z,7.87
2019-05-14T02:00:41.674Z,7.90
2019-05-14T02:01:41.516Z,7.84
2019-05-14T02:02:41.759Z,7.84
2019-05-14T02:03:41.218Z,7.87
2019-05-14T02:04:42.651Z,7.88
2019-05-14T02:05:41.579Z,7.95
2019-05-14T02:06:41.308Z,7.93
2019-05-14T02:07:41.998Z,7.95
2019-05-14T02:08:41.394Z,7.93
2019-05-14T02:09:42.008Z,7.96
2019-05-14T02:10:41.978Z,7.91
2019-05-14T02:11:41.597Z,7.88
2019-05-14T02:12:42.425Z,7.88
2019-05-14T02:13:41.418Z,7.85
2019-05-14T02:14:42.450Z,7.88
2019-05-14T02:15:43.068Z,7.88
2019-05-14T02:16:42.234Z,7.88
2019-05-14T02:17:41.393Z,7.90
2019-05-14T02:18:41.603Z,7.80
2019-05-14T02:19:42.501Z,7.80
2019-05-14T02:20:41.488Z,7.74
2019-05-14T02:21:42.545Z,7.74
2019-05-14T02:22:41.670Z,7.72
2019-05-14T02:23:42.041Z,7.70
2019-05-14T02:24:41.761Z,7.70
2019-05-14T02:25:41.250Z,7.64
2019-05-14T02:26:42.482Z,7.64
2019-05-14T02:27:41.355Z,7.62
2019-05-14T02:28:42.079Z,7.58
2019-05-14T02:29:41.631Z,7.62
2019-05-14T02:30:51.763Z,7.62
2019-05-14T02:31:40.370Z,7.58
2019-05-14T02:32:40.823Z,7.58
2019-05-14T02:33:40.301Z,7.59
2019-05-14T02:34:40.692Z,7.53
2019-05-14T02:35:40.262Z,7.50
2019-05-14T02:36:40.337Z,7.50
2019-05-14T02:37:40.614Z,7.48
2019-05-14T02:38:40.237Z,7.47
2019-05-14T02:39:41.210Z,7.50
2019-05-14T02:40:40.610Z,7.46
2019-05-14T02:41:40.181Z,7.44
2019-05-14T02:42:40.594Z,7.41
2019-05-14T02:43:40.860Z,7.39
2019-05-14T02:44:40.966Z,7.40
2019-05-14T02:45:58.653Z,7.41
2019-05-14T02:46:40.759Z,7.43
2019-05-14T02:47:40.091Z,7.43
2019-05-14T02:48:40.463Z,7.43
2019-05-14T02:49:40.249Z,7.43
2019-05-14T02:50:40.001Z,7.43
2019-05-14T02:51:40.000Z,7.37
2019-05-14T02:52:40.542Z,7.31
2019-05-14T02:53:39.949Z,7.36
2019-05-14T02:54:40.598Z,7.40
2019-05-14T02:55:39.917Z,7.41
2019-05-14T02:56:40.447Z,7.44
2019-05-14T02:57:39.876Z,7.46
2019-05-14T02:58:40.304Z,7.47
2019-05-14T02:59:40.016Z,7.47
2019-05-14T03:00:40.739Z,7.44
2019-05-14T03:01:40.830Z,7.37
2019-05-14T03:02:40.373Z,7.40
2019-05-14T03:03:40.409Z,7.39
2019-05-14T03:04:40.011Z,7.33
2019-05-14T03:05:40.298Z,7.32
2019-05-14T03:06:39.864Z,7.31
2019-05-14T03:07:39.893Z,7.31
2019-05-14T03:08:39.683Z,7.29
2019-05-14T03:09:40.421Z,7.32
2019-05-14T03:10:40.395Z,7.33
2019-05-14T03:11:40.654Z,7.25
2019-05-14T03:12:39.997Z,7.25
2019-05-14T03:13:40.261Z,7.23
2019-05-14T03:14:40.165Z,7.19
2019-05-14T03:15:39.557Z,7.21
2019-05-14T03:16:40.619Z,7.19
2019-05-14T03:17:40.436Z,7.21
2019-05-14T03:18:39.859Z,7.18
2019-05-14T03:19:40.801Z,7.15
2019-05-14T03:20:39.487Z,7.14
2019-05-14T03:21:39.779Z,7.11
2019-05-14T03:22:53.690Z,7.10
2019-05-14T03:23:39.579Z,7.11
2019-05-14T03:24:39.917Z,7.07
2019-05-14T03:25:40.126Z,7.07
2019-05-14T03:26:39.961Z,7.10
2019-05-14T03:27:40.399Z,7.14
2019-05-14T03:28:40.015Z,7.19
2019-05-14T03:29:40.174Z,7.23
2019-05-14T03:30:42.428Z,7.26
2019-05-14T03:31:42.462Z,7.29
2019-05-14T03:32:42.653Z,7.26
2019-05-14T03:33:44.096Z,7.26
2019-05-14T03:34:43.079Z,7.26
2019-05-14T03:35:44.077Z,7.23
2019-05-14T03:36:42.972Z,7.23
2019-05-14T03:37:39.289Z,7.25
2019-05-14T03:38:39.846Z,7.23
2019-05-14T03:39:39.760Z,7.19
2019-05-14T03:40:39.952Z,7.22
2019-05-14T03:41:39.960Z,7.23
2019-05-14T03:42:39.915Z,7.26
2019-05-14T03:43:39.327Z,7.26
2019-05-14T03:44:39.918Z,7.29
2019-05-14T03:45:39.349Z,7.31
2019-05-14T03:46:49.470Z,7.32
2019-05-14T03:47:39.619Z,7.29
2019-05-14T03:48:40.091Z,7.26
2019-05-14T03:49:39.890Z,7.28
2019-05-14T03:50:39.086Z,7.28
2019-05-14T03:51:39.554Z,7.31
2019-05-14T03:52:39.923Z,7.31
2019-05-14T03:53:55.087Z,7.33
2019-05-14T03:54:40.672Z,7.36
2019-05-14T03:55:40.253Z,7.37
2019-05-14T03:56:39.545Z,7.36
2019-05-14T03:57:39.862Z,7.36
2019-05-14T03:58:39.368Z,7.33
2019-05-14T03:59:40.194Z,7.37
2019-05-14T04:00:39.141Z,7.39
2019-05-14T04:01:40.127Z,7.44
2019-05-14T04:02:39.210Z,7.44
2019-05-14T04:03:39.851Z,7.46
2019-05-14T04:04:39.475Z,7.44
2019-05-14T04:05:40.150Z,7.44
2019-05-14T04:06:40.265Z,7.47
2019-05-14T04:07:39.470Z,7.48
2019-05-14T04:08:39.328Z,7.51
2019-05-14T04:09:40.002Z,7.53
2019-05-14T04:10:41.784Z,7.46
2019-05-14T04:11:39.803Z,7.51
2019-05-14T04:12:40.350Z,7.55
2019-05-14T04:13:40.547Z,7.56
2019-05-14T04:14:39.850Z,7.56
2019-05-14T04:15:39.205Z,7.59
2019-05-14T04:16:39.816Z,7.56
2019-05-14T04:17:42.206Z,7.58
2019-05-14T04:18:40.454Z,7.61
2019-05-14T04:19:39.542Z,7.62
2019-05-14T04:20:39.241Z,7.64
2019-05-14T04:21:40.022Z,7.64
2019-05-14T04:22:39.301Z,7.67
2019-05-14T04:23:39.754Z,7.64
2019-05-14T04:24:41.361Z,7.64
2019-05-14T04:25:39.032Z,7.62
2019-05-14T04:26:56.417Z,7.64
2019-05-14T04:27:40.096Z,7.67
2019-05-14T04:28:39.243Z,7.69
2019-05-14T04:29:39.558Z,7.70
2019-05-14T04:30:39.966Z,7.74
2019-05-14T04:31:38.993Z,7.74
2019-05-14T04:32:39.425Z,7.75
2019-05-14T04:33:39.292Z,7.74
2019-05-14T04:34:39.706Z,7.75
2019-05-14T04:35:40.151Z,7.80
2019-05-14T04:36:39.203Z,7.81
2019-05-14T04:37:39.872Z,7.81
2019-05-14T04:38:40.825Z,7.85
2019-05-14T04:39:39.679Z,7.88
2019-05-14T04:40:39.982Z,7.91
2019-05-14T04:41:39.329Z,7.87
2019-05-14T04:42:40.221Z,7.88
2019-05-14T04:43:40.003Z,7.90
2019-05-14T04:44:40.454Z,7.93
2019-05-14T04:45:39.547Z,7.91
2019-05-14T04:46:39.510Z,7.93
2019-05-14T04:47:42.077Z,7.93
2019-05-14T04:48:42.959Z,7.93
2019-05-14T04:49:39.941Z,7.93
2019-05-14T04:50:40.493Z,7.91
2019-05-14T04:51:39.680Z,7.88
2019-05-14T04:52:40.253Z,7.90
2019-05-14T04:53:39.433Z,7.90
2019-05-14T04:54:39.379Z,7.90
2019-05-14T04:55:40.067Z,7.91
2019-05-14T04:56:39.991Z,7.93
2019-05-14T04:57:39.244Z,7.93
2019-05-14T04:58:40.981Z,7.93
2019-05-14T04:59:39.727Z,7.95
2019-05-14T05:00:39.213Z,7.95
2019-05-14T05:01:40.087Z,7.91
2019-05-14T05:02:39.720Z,7.90
2019-05-14T05:03:40.033Z,7.90
2019-05-14T05:04:41.184Z,7.91
2019-05-14T05:05:39.424Z,7.91
2019-05-14T05:06:39.607Z,7.93
2019-05-14T05:07:40.305Z,7.95
2019-05-14T05:08:39.480Z,7.98
2019-05-14T05:09:39.863Z,7.99
2019-05-14T05:10:39.827Z,8.03
2019-05-14T05:11:39.464Z,8.03
2019-05-14T05:12:38.738Z,8.08
2019-05-14T05:13:39.735Z,8.09
2019-05-14T05:14:38.841Z,8.16
2019-05-14T05:15:39.556Z,8.18
2019-05-14T05:16:39.105Z,8.18
2019-05-14T05:17:44.307Z,8.20
2019-05-14T05:18:39.749Z,8.21
2019-05-14T05:19:39.389Z,8.21
2019-05-14T05:20:39.343Z,8.21
2019-05-14T05:21:38.787Z,8.23
2019-05-14T05:22:39.399Z,8.13
2019-05-14T05:23:38.749Z,8.13
2019-05-14T05:24:38.140Z,8.14
2019-05-14T05:25:38.427Z,8.14
2019-05-14T05:26:39.204Z,8.14
2019-05-14T05:27:38.201Z,8.14
2019-05-14T05:28:39.206Z,8.17
2019-05-14T05:29:39.281Z,8.17
2019-05-14T05:30:38.501Z,8.16
2019-05-14T05:31:38.129Z,8.11
2019-05-14T05:32:38.855Z,8.13
2019-05-14T05:33:38.397Z,8.13
2019-05-14T05:34:38.940Z,8.13
2019-05-14T05:35:39.247Z,8.17
2019-05-14T05:36:38.063Z,8.20
2019-05-14T05:37:38.465Z,8.24
2019-05-14T05:38:39.426Z,8.23
2019-05-14T05:39:38.651Z,8.24
2019-05-14T05:40:39.126Z,8.23
2019-05-14T05:41:38.486Z,8.26
2019-05-14T05:42:38.567Z,8.26
2019-05-14T05:43:39.080Z,8.23
2019-05-14T05:44:39.156Z,8.21
2019-05-14T05:45:38.091Z,8.23
2019-05-14T05:46:38.894Z,8.26
2019-05-14T05:47:38.996Z,8.28
2019-05-14T05:48:38.929Z,8.32
2019-05-14T05:49:38.190Z,8.36
2019-05-14T05:50:38.907Z,8.38
2019-05-14T05:51:39.061Z,8.42
2019-05-14T05:52:38.747Z,8.38
2019-05-14T05:53:39.044Z,8.41
2019-05-14T05:54:38.503Z,8.41
2019-05-14T05:55:39.263Z,8.42
2019-05-14T05:56:38.752Z,8.36
2019-05-14T05:57:38.994Z,8.39
2019-05-14T05:58:39.463Z,8.41
2019-05-14T05:59:39.048Z,8.42
2019-05-14T06:00:39.433Z,8.41
2019-05-14T06:01:45.042Z,8.44
2019-05-14T06:02:36.629Z,8.38
2019-05-14T06:03:39.047Z,8.41
2019-05-14T06:04:38.962Z,8.38
2019-05-14T06:05:38.935Z,8.38
2019-05-14T06:06:38.898Z,8.35
2019-05-14T06:07:36.568Z,8.39
2019-05-14T06:08:38.661Z,8.38
2019-05-14T06:09:38.099Z,8.34
2019-05-14T06:10:36.486Z,8.34
2019-05-14T06:11:38.077Z,8.36
2019-05-14T06:12:38.829Z,8.32
2019-05-14T06:13:38.810Z,8.26
2019-05-14T06:14:38.227Z,8.26
2019-05-14T06:15:47.586Z,8.24
2019-05-14T06:16:38.489Z,8.26
2019-05-14T06:17:38.851Z,8.28
2019-05-14T06:18:38.794Z,8.26
2019-05-14T06:19:38.230Z,8.31
2019-05-14T06:20:38.524Z,8.36
2019-05-14T06:21:36.303Z,8.44
2019-05-14T06:22:38.413Z,8.46
2019-05-14T06:23:38.367Z,8.52
2019-05-14T06:24:38.759Z,8.46
2019-05-14T06:25:36.231Z,8.52
2019-05-14T06:26:38.281Z,8.57
2019-05-14T06:27:38.062Z,8.61
2019-05-14T06:28:40.314Z,8.66
2019-05-14T06:29:38.319Z,8.61
2019-05-14T06:30:36.156Z,8.66
2019-05-14T06:31:38.438Z,8.61
2019-05-14T06:32:38.623Z,8.66
2019-05-14T06:33:36.102Z,8.71
2019-05-14T06:34:38.243Z,8.69
2019-05-14T06:35:36.099Z,8.66
2019-05-14T06:36:36.045Z,8.66
2019-05-14T06:37:38.280Z,8.71
2019-05-14T06:38:38.598Z,8.68
2019-05-14T06:39:36.009Z,8.68
2019-05-14T06:40:35.973Z,8.66
2019-05-14T06:41:40.140Z,8.68
2019-05-14T06:42:35.942Z,8.71
2019-05-14T06:43:35.930Z,8.72
2019-05-14T06:44:38.405Z,8.77
2019-05-14T06:45:38.218Z,8.82
2019-05-14T06:46:35.874Z,8.87
2019-05-14T06:47:38.063Z,8.93
2019-05-14T06:48:35.836Z,8.95
2019-05-14T06:49:38.333Z,9.00
2019-05-14T06:50:35.799Z,8.97
2019-05-14T06:51:35.792Z,9.00
2019-05-14T06:52:35.780Z,9.11
2019-05-14T06:53:35.753Z,9.19
2019-05-14T06:54:35.731Z,9.27
2019-05-14T06:55:35.745Z,9.34
2019-05-14T06:56:35.701Z,9.37
2019-05-14T06:57:35.685Z,9.47
2019-05-14T06:58:35.664Z,9.55
2019-05-14T06:59:37.921Z,9.66
2019-05-14T07:00:35.644Z,9.73
2019-05-14T07:01:35.648Z,9.77
2019-05-14T07:02:35.597Z,9.80
2019-05-14T07:03:36.130Z,9.82
2019-05-14T07:04:35.582Z,9.87
2019-05-14T07:05:35.552Z,9.90
2019-05-14T07:06:35.554Z,9.99
2019-05-14T07:07:39.945Z,9.97
2019-05-14T07:08:35.499Z,9.97
2019-05-14T07:09:35.485Z,9.91
2019-05-14T07:10:35.503Z,9.90
2019-05-14T07:11:39.235Z,9.95
2019-05-14T07:12:35.437Z,9.97
2019-05-14T07:13:39.148Z,9.87
2019-05-14T07:14:35.406Z,9.90
2019-05-14T07:15:35.382Z,9.94
2019-05-14T07:16:35.375Z,9.91
2019-05-14T07:17:39.235Z,9.97
2019-05-14T07:18:48.610Z,10.02
2019-05-14T07:19:35.330Z,10.12
2019-05-14T07:20:35.305Z,10.21
2019-05-14T07:21:35.297Z,10.25
2019-05-14T07:22:35.270Z,10.30
2019-05-14T07:23:35.426Z,10.39
2019-05-14T07:24:37.187Z,10.38
2019-05-14T07:25:35.224Z,10.39
2019-05-14T07:26:35.240Z,10.38
2019-05-14T07:27:35.187Z,10.43
2019-05-14T07:28:35.181Z,10.51
2019-05-14T07:29:35.155Z,10.51
2019-05-14T07:30:35.147Z,10.58
2019-05-14T07:31:35.122Z,10.65
2019-05-14T07:32:35.110Z,10.67
2019-05-14T07:33:35.142Z,10.67
2019-05-14T07:34:35.079Z,10.67
2019-05-14T07:35:35.062Z,10.69
2019-05-14T07:36:35.043Z,10.71
2019-05-14T07:37:35.030Z,10.72
2019-05-14T07:38:35.015Z,10.79
2019-05-14T07:39:34.993Z,10.83
2019-05-14T07:40:34.986Z,10.83
2019-05-14T07:41:34.981Z,10.89
2019-05-14T07:42:34.948Z,10.92
2019-05-14T07:43:34.953Z,10.95
2019-05-14T07:44:34.915Z,11.01
2019-05-14T07:45:34.895Z,11.08
2019-05-14T07:46:34.909Z,11.15
2019-05-14T07:47:34.871Z,11.04
2019-05-14T07:48:34.847Z,10.97
2019-05-14T07:49:34.838Z,10.94
2019-05-14T07:50:34.820Z,10.82
2019-05-14T07:51:34.814Z,10.86
2019-05-14T07:52:34.811Z,10.86
2019-05-14T07:53:38.949Z,10.89
2019-05-14T07:54:34.779Z,10.86
2019-05-14T07:55:34.737Z,10.80
2019-05-14T07:56:34.931Z,10.79
2019-05-14T07:57:34.837Z,10.76
2019-05-14T07:58:34.693Z,10.68
2019-05-14T07:59:34.673Z,10.68
2019-05-14T08:00:34.663Z,10.64
2019-05-14T08:01:34.647Z,10.61
2019-05-14T08:02:34.638Z,10.64
2019-05-14T08:03:34.636Z,10.64
2019-05-14T08:04:34.599Z,10.68
2019-05-14T08:05:34.597Z,10.72
2019-05-14T08:06:34.601Z,10.80
2019-05-14T08:07:34.549Z,10.86
2019-05-14T08:08:34.538Z,10.98
2019-05-14T08:09:34.526Z,11.10
2019-05-14T08:10:34.503Z,11.15
2019-05-14T08:11:34.484Z,11.20
2019-05-14T08:12:34.470Z,11.25
2019-05-14T08:13:34.488Z,11.33
2019-05-14T08:14:45.383Z,11.43
2019-05-14T08:15:34.422Z,11.52
2019-05-14T08:16:34.409Z,11.58
2019-05-14T08:17:34.403Z,11.53
2019-05-14T08:18:34.444Z,11.52
2019-05-14T08:19:34.648Z,11.51
2019-05-14T08:20:34.357Z,11.51
2019-05-14T08:21:34.336Z,11.45
2019-05-14T08:22:34.318Z,11.35
2019-05-14T08:23:34.297Z,11.35
2019-05-14T08:24:34.291Z,11.43
2019-05-14T08:25:34.266Z,11.48
2019-05-14T08:26:34.312Z,11.45
2019-05-14T08:27:34.304Z,11.41
2019-05-14T08:28:34.234Z,11.43
2019-05-14T08:29:36.836Z,11.49
2019-05-14T08:30:34.197Z,11.56
2019-05-14T08:31:34.189Z,11.65
2019-05-14T08:32:34.167Z,11.65
2019-05-14T08:33:34.142Z,11.62
2019-05-14T08:34:34.125Z,11.67
2019-05-14T08:35:35.259Z,11.76
2019-05-14T08:36:34.101Z,11.80
2019-05-14T08:37:34.117Z,11.86
2019-05-14T08:38:34.082Z,11.91
2019-05-14T08:39:34.057Z,11.93
2019-05-14T08:40:34.051Z,12.02
2019-05-14T08:41:34.030Z,12.15
2019-05-14T08:42:34.578Z,12.37
2019-05-14T08:43:34.002Z,12.47
2019-05-14T08:44:33.982Z,12.43
2019-05-14T08:45:33.972Z,12.48
2019-05-14T08:46:33.956Z,12.47
2019-05-14T08:47:33.964Z,12.48
2019-05-14T08:48:33.918Z,12.54
2019-05-14T08:49:41.901Z,12.45
2019-05-14T08:50:33.892Z,12.54
2019-05-14T08:51:33.876Z,12.63
2019-05-14T08:52:33.888Z,12.63
2019-05-14T08:53:33.854Z,12.63
2019-05-14T08:54:34.114Z,12.62
2019-05-14T08:55:33.829Z,12.58
2019-05-14T08:56:33.806Z,12.55
2019-05-14T08:57:33.897Z,12.51
2019-05-14T08:58:33.782Z,12.50
2019-05-14T08:59:33.759Z,12.47
2019-05-14T09:00:33.745Z,12.47
2019-05-14T09:01:33.737Z,12.43
2019-05-14T09:02:33.772Z,12.50
2019-05-14T09:03:33.701Z,12.44
2019-05-14T09:04:33.708Z,12.44
2019-05-14T09:05:33.680Z,12.45
2019-05-14T09:06:33.664Z,12.68
2019-05-14T09:07:33.642Z,12.54
2019-05-14T09:08:33.659Z,12.53
2019-05-14T09:09:33.627Z,12.51
2019-05-14T09:10:33.641Z,12.51
2019-05-14T09:11:36.389Z,12.45
2019-05-14T09:12:33.605Z,12.73
2019-05-14T09:13:33.561Z,12.88
2019-05-14T09:14:33.543Z,12.93
2019-05-14T09:15:33.530Z,12.80
2019-05-14T09:16:45.532Z,12.90
2019-05-14T09:17:33.529Z,13.36
2019-05-14T09:18:33.484Z,13.94
2019-05-14T09:19:33.501Z,14.34
2019-05-14T09:20:33.454Z,14.70
2019-05-14T09:21:33.447Z,14.58
2019-05-14T09:22:33.431Z,14.70
2019-05-14T09:23:33.439Z,15.44
2019-05-14T09:24:33.417Z,15.92
2019-05-14T09:25:33.409Z,16.06
2019-05-14T09:26:33.380Z,16.16
2019-05-14T09:27:33.364Z,15.72
2019-05-14T09:28:33.366Z,15.70
2019-05-14T09:29:33.363Z,15.91
2019-05-14T09:30:33.334Z,15.94
2019-05-14T09:31:33.344Z,15.78
2019-05-14T09:32:33.309Z,15.66
2019-05-14T09:33:33.294Z,15.80
2019-05-14T09:34:33.411Z,15.72
2019-05-14T09:35:33.270Z,15.44
2019-05-14T09:36:33.264Z,15.10
2019-05-14T09:37:33.250Z,14.89
2019-05-14T09:38:33.234Z,15.18
2019-05-14T09:39:33.224Z,15.60
2019-05-14T09:40:33.372Z,16.10
2019-05-14T09:41:33.200Z,16.28
2019-05-14T09:42:33.222Z,16.29
2019-05-14T09:43:33.178Z,16.25
2019-05-14T09:44:33.166Z,16.02
2019-05-14T09:45:33.169Z,15.84
2019-05-14T09:46:33.153Z,15.66
2019-05-14T09:47:33.157Z,15.76
2019-05-14T09:48:33.122Z,16.10
2019-05-14T09:49:33.113Z,16.49
2019-05-14T09:50:33.096Z,16.74
2019-05-14T09:51:33.096Z,17.38
2019-05-14T09:52:33.137Z,18.12
2019-05-14T09:53:33.065Z,18.82
2019-05-14T09:54:33.080Z,19.49
2019-05-14T09:55:33.055Z,19.81
2019-05-14T09:56:33.038Z,20.34
2019-05-14T09:57:33.038Z,20.53
2019-05-14T09:58:33.062Z,20.33
2019-05-14T09:59:33.045Z,19.85
2019-05-14T10:00:33.014Z,19.57
2019-05-14T10:01:33.000Z,19.19
2019-05-14T10:02:33.006Z,18.82
2019-05-14T10:03:32.985Z,18.71
2019-05-14T10:04:33.039Z,18.53
2019-05-14T10:05:32.979Z,18.94
2019-05-14T10:06:32.964Z,19.23
2019-05-14T10:07:32.956Z,19.00
2019-05-14T10:08:32.950Z,18.70
2019-05-14T10:09:32.944Z,18.45
2019-05-14T10:10:32.976Z,18.67
2019-05-14T10:11:32.935Z,18.79
2019-05-14T10:12:32.933Z,18.81
2019-05-14T10:13:32.997Z,18.39
2019-05-14T10:14:32.908Z,17.95
2019-05-14T10:15:32.945Z,18.31
2019-05-14T10:16:32.906Z,18.91
2019-05-14T10:17:32.894Z,19.30
2019-05-14T10:18:32.888Z,19.55
2019-05-14T10:19:32.936Z,19.67
2019-05-14T10:20:40.927Z,20.34
2019-05-14T10:21:32.882Z,20.70
2019-05-14T10:22:32.860Z,20.52
2019-05-14T10:23:32.863Z,20.15
2019-05-14T10:24:32.854Z,20.04
2019-05-14T10:25:32.854Z,20.32
2019-05-14T10:26:32.863Z,20.56
2019-05-14T10:27:32.867Z,21.26
2019-05-14T10:28:32.840Z,21.51
2019-05-14T10:29:32.834Z,21.83
2019-05-14T10:30:32.827Z,21.69
2019-05-14T10:31:32.834Z,21.50
2019-05-14T10:32:32.836Z,21.43
2019-05-14T10:33:32.817Z,21.53
2019-05-14T10:34:32.818Z,21.97
2019-05-14T10:35:32.809Z,22.36
2019-05-14T10:36:32.852Z,22.56
2019-05-14T10:37:32.807Z,22.62
2019-05-14T10:38:32.797Z,22.34
2019-05-14T10:39:32.865Z,22.12
2019-05-14T10:40:32.784Z,21.45
2019-05-14T10:41:32.781Z,21.29
2019-05-14T10:42:32.800Z,21.29
2019-05-14T10:43:32.770Z,20.86
2019-05-14T10:44:32.768Z,20.48
2019-05-14T10:45:32.764Z,20.19
2019-05-14T10:46:32.758Z,20.14
2019-05-14T10:47:32.906Z,20.26
2019-05-14T10:48:32.746Z,20.22
2019-05-14T10:49:32.749Z,20.53
2019-05-14T10:50:32.753Z,20.75
2019-05-14T10:51:32.727Z,20.90
2019-05-14T10:52:32.722Z,20.82
2019-05-14T10:53:32.754Z,20.56
2019-05-14T10:54:32.731Z,19.78
2019-05-14T10:55:32.705Z,19.35
2019-05-14T10:56:32.697Z,18.78
2019-05-14T10:57:32.720Z,18.63
2019-05-14T10:58:32.717Z,18.27
2019-05-14T10:59:32.686Z,18.31
2019-05-14T11:00:32.673Z,17.76
2019-05-14T11:01:32.660Z,17.23
2019-05-14T11:02:32.662Z,17.28
2019-05-14T11:03:32.789Z,17.47
2019-05-14T11:04:34.401Z,17.66
2019-05-14T11:05:32.631Z,17.86
2019-05-14T11:06:32.628Z,17.94
2019-05-14T11:07:32.616Z,18.00
2019-05-14T11:08:32.619Z,17.47
2019-05-14T11:09:32.610Z,17.35
2019-05-14T11:10:32.600Z,17.42
2019-05-14T11:11:32.589Z,17.28
2019-05-14T11:12:32.571Z,17.20
2019-05-14T11:13:32.567Z,17.14
2019-05-14T11:14:32.580Z,17.01
2019-05-14T11:15:32.553Z,16.87
2019-05-14T11:16:32.545Z,16.68
2019-05-14T11:17:32.523Z,16.61
2019-05-14T11:18:32.519Z,16.26
2019-05-14T11:19:32.537Z,16.03
2019-05-14T11:20:32.498Z,15.92
2019-05-14T11:21:32.496Z,16.09
2019-05-14T11:22:32.484Z,16.80
2019-05-14T11:23:32.468Z,17.30
2019-05-14T11:24:32.512Z,17.38
2019-05-14T11:25:32.456Z,17.31
2019-05-14T11:26:32.446Z,17.35
2019-05-14T11:27:32.427Z,17.57
2019-05-14T11:28:32.429Z,18.05
2019-05-14T11:29:32.415Z,18.24
2019-05-14T11:30:32.432Z,18.85
2019-05-14T11:31:34.293Z,18.97
2019-05-14T11:32:32.392Z,18.61
2019-05-14T11:33:32.375Z,18.73
2019-05-14T11:34:32.371Z,18.67
2019-05-14T11:35:32.415Z,18.66
2019-05-14T11:36:32.351Z,18.67
2019-05-14T11:37:32.343Z,18.39
2019-05-14T11:38:37.242Z,18.03
2019-05-14T11:39:32.329Z,17.52
2019-05-14T11:40:32.315Z,17.16
2019-05-14T11:41:32.449Z,17.14
2019-05-14T11:42:32.329Z,17.73
2019-05-14T11:43:32.343Z,18.02
2019-05-14T11:44:32.383Z,18.06
2019-05-14T11:45:32.354Z,17.93
2019-05-14T11:46:43.797Z,17.71
2019-05-14T11:47:32.245Z,17.49
2019-05-14T11:48:32.237Z,17.31
2019-05-14T11:49:32.245Z,17.16
2019-05-14T11:50:32.915Z,17.39
2019-05-14T11:51:58.841Z,18.21
2019-05-14T11:52:32.210Z,19.00
2019-05-14T11:53:32.195Z,20.00
2019-05-14T11:54:32.192Z,20.85
2019-05-14T11:55:32.410Z,21.89
2019-05-14T11:56:32.173Z,22.49
2019-05-14T11:57:32.162Z,22.84
2019-05-14T11:58:32.180Z,23.39
2019-05-14T11:59:32.153Z,24.13
2019-05-14T12:00:32.164Z,24.84
2019-05-14T12:01:32.148Z,25.09
2019-05-14T12:02:32.140Z,25.46
2019-05-14T12:03:32.138Z,25.93
2019-05-14T12:04:32.130Z,25.91
2019-05-14T12:05:32.116Z,24.41
2019-05-14T12:06:32.120Z,24.14
2019-05-14T12:07:32.112Z,23.45
2019-05-14T12:08:32.110Z,23.36
2019-05-14T12:09:32.108Z,23.20
2019-05-14T12:10:32.102Z,22.88
2019-05-14T12:11:32.100Z,22.19
2019-05-14T12:12:32.102Z,21.80
2019-05-14T12:13:32.982Z,21.48
2019-05-14T12:14:32.074Z,21.20
2019-05-14T12:15:32.079Z,20.85
2019-05-14T12:16:32.102Z,20.58
2019-05-14T12:17:32.069Z,19.99
2019-05-14T12:18:32.082Z,19.00
2019-05-14T12:19:32.060Z,18.28
2019-05-14T12:20:32.046Z,18.09
2019-05-14T12:21:32.045Z,18.05
2019-05-14T12:22:32.044Z,18.00
2019-05-14T12:23:32.056Z,17.86
2019-05-14T12:24:32.023Z,17.78
2019-05-14T12:25:32.020Z,17.79
2019-05-14T12:26:32.068Z,17.69
2019-05-14T12:27:32.008Z,17.69
2019-05-14T12:28:32.023Z,17.41
2019-05-14T12:29:31.999Z,17.05
2019-05-14T12:30:31.996Z,17.02
2019-05-14T12:31:31.976Z,16.97
2019-05-14T12:32:31.956Z,16.92
2019-05-14T12:33:32.052Z,16.89
2019-05-14T12:34:31.975Z,16.94
2019-05-14T12:35:31.957Z,16.95
2019-05-14T12:36:32.006Z,17.04
2019-05-14T12:37:31.921Z,17.23
2019-05-14T12:38:31.945Z,17.47
2019-05-14T12:39:31.899Z,17.65
2019-05-14T12:40:31.897Z,17.87
2019-05-14T12:41:31.885Z,18.02
2019-05-14T12:42:31.889Z,18.12
2019-05-14T12:43:31.862Z,18.15
2019-05-14T12:44:31.854Z,18.18
2019-05-14T12:45:31.841Z,18.16
2019-05-14T12:46:31.847Z,18.16
2019-05-14T12:47:31.828Z,18.16
2019-05-14T12:48:31.826Z,18.16
2019-05-14T12:49:31.821Z,18.06
2019-05-14T12:50:31.953Z,18.06
2019-05-14T12:51:31.820Z,18.06
2019-05-14T12:52:31.784Z,17.97
2019-05-14T12:53:31.772Z,17.57
2019-05-14T12:54:31.837Z,17.59
2019-05-14T12:55:31.766Z,17.41
2019-05-14T12:56:31.775Z,17.05
2019-05-14T12:57:31.734Z,16.64
2019-05-14T12:58:31.749Z,16.32
2019-05-14T12:59:31.744Z,16.00
2019-05-14T13:00:31.748Z,15.85
2019-05-14T13:01:31.745Z,15.54
2019-05-14T13:02:31.692Z,15.47
2019-05-14T13:03:31.676Z,15.43
2019-05-14T13:04:31.731Z,15.37
2019-05-14T13:05:31.694Z,15.30
2019-05-14T13:06:31.657Z,15.19